createdAt,value
2023-12-07T00:00:51.328Z,10.66
2023-12-07T00:03:37.609Z,10.66
2023-12-07T00:06:23.897Z,10.66
2023-12-07T00:09:09.999Z,10.64
2023-12-07T00:11:56.176Z,10.62
2023-12-07T00:14:42.954Z,10.66
2023-12-07T00:17:29.151Z,10.61
2023-12-07T00:20:15.136Z,10.65
2023-12-07T00:23:00.921Z,10.63
2023-12-07T00:25:47.108Z,10.64
2023-12-07T00:28:34.956Z,10.56
2023-12-07T00:31:21.599Z,10.60
2023-12-07T00:34:07.703Z,10.54
2023-12-07T00:36:53.429Z,10.61
2023-12-07T00:39:39.344Z,10.61
2023-12-07T00:42:25.823Z,10.60
2023-12-07T00:45:13.605Z,10.59
2023-12-07T00:48:01.950Z,10.55
2023-12-07T00:50:48.765Z,10.60
2023-12-07T00:53:35.871Z,10.57
2023-12-07T00:56:21.718Z,10.56
2023-12-07T00:59:08.163Z,10.56
2023-12-07T01:01:54.014Z,10.55
2023-12-07T01:04:41.098Z,10.54
2023-12-07T01:07:27.199Z,10.53
2023-12-07T01:10:13.212Z,10.52
2023-12-07T01:12:59.192Z,10.52
2023-12-07T01:15:44.992Z,10.52
2023-12-07T01:18:30.979Z,10.51
2023-12-07T01:21:17.142Z,10.51
2023-12-07T01:24:13.253Z,10.47
2023-12-07T01:27:02.286Z,10.46
2023-12-07T01:29:48.240Z,10.50
2023-12-07T01:32:34.160Z,10.49
2023-12-07T01:35:20.146Z,10.47
2023-12-07T01:38:06.110Z,10.49
2023-12-07T01:40:51.979Z,10.47
2023-12-07T01:43:38.087Z,10.46
2023-12-07T01:46:24.587Z,10.46
2023-12-07T01:49:11.020Z,10.42
2023-12-07T01:51:58.074Z,10.40
2023-12-07T01:54:44.000Z,10.41
2023-12-07T01:57:30.420Z,10.43
2023-12-07T02:00:17.455Z,10.41
2023-12-07T02:03:07.167Z,10.39
2023-12-07T02:05:53.050Z,10.38
2023-12-07T02:08:42.730Z,10.38
2023-12-07T02:11:28.971Z,10.36
2023-12-07T02:14:14.780Z,10.36
2023-12-07T02:17:38.044Z,10.29
2023-12-07T02:20:31.062Z,10.32
2023-12-07T02:23:28.644Z,10.30
2023-12-07T02:26:39.750Z,10.30
2023-12-07T02:29:26.059Z,10.31
2023-12-07T02:32:12.069Z,10.30
2023-12-07T02:34:58.180Z,10.29
2023-12-07T02:37:48.097Z,10.26
2023-12-07T02:40:34.858Z,10.29
2023-12-07T02:43:21.296Z,10.28
2023-12-07T02:46:07.607Z,10.28
2023-12-07T02:48:53.375Z,10.27
2023-12-07T02:51:39.344Z,10.27
2023-12-07T02:54:25.347Z,10.23
2023-12-07T02:57:11.299Z,10.23
2023-12-07T02:59:58.022Z,10.14
2023-12-07T03:02:44.209Z,10.12
2023-12-07T03:05:30.116Z,10.13
2023-12-07T03:08:16.163Z,10.08
2023-12-07T03:11:01.825Z,10.08
2023-12-07T03:13:47.766Z,10.08
2023-12-07T03:16:33.754Z,10.07
2023-12-07T03:19:19.485Z,10.06
2023-12-07T03:22:05.255Z,10.07
2023-12-07T03:24:53.269Z,10.05
2023-12-07T03:27:38.985Z,10.02
2023-12-07T03:30:25.028Z,10.04
2023-12-07T03:33:11.166Z,10.04
2023-12-07T03:35:57.801Z,9.96
2023-12-07T03:38:44.545Z,10.01
2023-12-07T03:41:30.412Z,9.99
2023-12-07T03:44:16.863Z,10.05
2023-12-07T03:47:03.252Z,9.98
2023-12-07T03:49:49.330Z,10.01
2023-12-07T03:52:35.135Z,9.98
2023-12-07T03:55:21.314Z,9.94
2023-12-07T03:58:07.197Z,9.92
2023-12-07T04:00:53.126Z,9.88
2023-12-07T04:03:39.077Z,9.85
2023-12-07T04:06:26.586Z,9.85
2023-12-07T04:09:12.952Z,9.83
2023-12-07T04:11:59.190Z,9.82
2023-12-07T04:14:44.904Z,9.81
2023-12-07T04:17:31.000Z,9.78
2023-12-07T04:20:16.933Z,9.70
2023-12-07T04:23:02.947Z,9.72
2023-12-07T04:25:49.179Z,9.68
2023-12-07T04:28:35.343Z,9.67
2023-12-07T04:31:22.538Z,9.63
2023-12-07T04:34:09.014Z,9.61
2023-12-07T04:36:54.773Z,9.58
2023-12-07T04:39:40.910Z,9.57
2023-12-07T04:42:27.009Z,9.54
2023-12-07T04:45:13.342Z,9.52
2023-12-07T04:48:01.674Z,9.49
2023-12-07T04:50:47.914Z,9.47
2023-12-07T04:53:34.311Z,9.48
2023-12-07T04:56:20.406Z,9.46
2023-12-07T04:59:06.605Z,9.45
2023-12-07T05:01:52.697Z,9.47
2023-12-07T05:04:38.683Z,9.46
2023-12-07T05:07:24.970Z,9.45
2023-12-07T05:10:11.325Z,9.43
2023-12-07T05:12:58.270Z,9.42
2023-12-07T05:15:44.105Z,9.38
2023-12-07T05:18:30.312Z,9.41
2023-12-07T05:21:17.228Z,9.41
2023-12-07T05:24:03.168Z,9.40
2023-12-07T05:26:49.751Z,9.41
2023-12-07T05:29:35.938Z,9.41
2023-12-07T05:32:23.803Z,9.40
2023-12-07T05:35:10.060Z,9.43
2023-12-07T05:37:55.965Z,9.41
2023-12-07T05:40:42.687Z,9.43
2023-12-07T05:43:28.953Z,9.43
2023-12-07T05:46:14.900Z,9.43
2023-12-07T05:49:00.892Z,9.44
2023-12-07T05:51:47.027Z,9.40
2023-12-07T05:54:32.925Z,9.42
2023-12-07T05:57:19.571Z,9.43
2023-12-07T06:00:10.304Z,9.42
2023-12-07T06:02:59.108Z,9.34
2023-12-07T06:05:46.446Z,9.41
2023-12-07T06:08:33.015Z,9.42
2023-12-07T06:11:19.032Z,9.40
2023-12-07T06:14:07.576Z,9.38
2023-12-07T06:16:53.745Z,9.34
2023-12-07T06:19:39.380Z,9.36
2023-12-07T06:22:25.494Z,9.36
2023-12-07T06:25:12.645Z,9.33
2023-12-07T06:27:59.006Z,9.30
2023-12-07T06:30:46.082Z,9.31
2023-12-07T06:33:32.273Z,9.30
2023-12-07T06:36:25.420Z,9.23
2023-12-07T06:39:12.092Z,9.21
2023-12-07T06:41:58.420Z,9.18
2023-12-07T06:44:45.338Z,9.19
2023-12-07T06:47:32.142Z,9.18
2023-12-07T06:50:18.320Z,9.14
2023-12-07T06:53:04.681Z,9.14
2023-12-07T06:55:53.133Z,9.14
2023-12-07T06:58:41.718Z,9.06
2023-12-07T07:01:31.212Z,9.15
2023-12-07T07:04:19.044Z,9.13
2023-12-07T07:07:07.276Z,9.14
2023-12-07T07:09:54.800Z,9.18
2023-12-07T07:12:42.410Z,9.19
2023-12-07T07:15:29.617Z,9.21
2023-12-07T07:18:17.244Z,9.22
2023-12-07T07:21:06.255Z,9.23
2023-12-07T07:23:53.755Z,9.23
2023-12-07T07:26:41.282Z,9.22
2023-12-07T07:29:30.404Z,9.25
2023-12-07T07:32:18.252Z,9.27
2023-12-07T07:35:05.848Z,9.28
2023-12-07T07:37:53.419Z,9.28
2023-12-07T07:40:40.989Z,9.28
2023-12-07T07:43:33.244Z,9.26
2023-12-07T07:46:21.478Z,9.29
2023-12-07T07:49:09.308Z,9.29
2023-12-07T07:51:57.139Z,9.28
2023-12-07T07:54:45.061Z,9.28
2023-12-07T07:57:32.800Z,9.30
2023-12-07T08:00:21.014Z,9.29
2023-12-07T08:03:09.382Z,9.32
2023-12-07T08:05:58.098Z,9.30
2023-12-07T08:08:46.515Z,9.35
2023-12-07T08:11:35.449Z,9.37
2023-12-07T08:14:22.775Z,9.35
2023-12-07T08:17:10.013Z,9.41
2023-12-07T08:19:57.426Z,9.44
2023-12-07T08:22:45.367Z,9.44
2023-12-07T08:25:33.271Z,9.45
2023-12-07T08:28:19.850Z,9.42
2023-12-07T08:31:05.869Z,9.41
2023-12-07T08:33:52.487Z,9.43
2023-12-07T08:36:38.413Z,9.44
2023-12-07T08:39:24.377Z,9.42
2023-12-07T08:42:10.496Z,9.41
2023-12-07T08:44:58.078Z,9.35
2023-12-07T08:47:44.267Z,9.37
2023-12-07T08:50:31.085Z,9.35
2023-12-07T08:53:17.329Z,9.34
2023-12-07T08:56:03.565Z,9.31
2023-12-07T08:58:49.373Z,9.34
2023-12-07T09:01:35.562Z,9.37
2023-12-07T09:04:21.633Z,9.39
2023-12-07T09:07:10.432Z,9.39
2023-12-07T09:09:56.608Z,9.34
2023-12-07T09:12:42.542Z,9.36
2023-12-07T09:15:28.357Z,9.32
2023-12-07T09:18:14.482Z,9.34
2023-12-07T09:21:01.917Z,9.34
2023-12-07T09:23:47.869Z,9.35
2023-12-07T09:26:34.182Z,9.37
2023-12-07T09:29:20.119Z,9.37
2023-12-07T09:32:07.488Z,9.37
2023-12-07T09:34:54.394Z,9.36
2023-12-07T09:37:40.600Z,9.36
2023-12-07T09:40:27.058Z,9.41
2023-12-07T09:43:13.987Z,9.38
2023-12-07T09:45:59.824Z,9.41
2023-12-07T09:48:48.407Z,9.40
2023-12-07T09:51:35.749Z,9.39
2023-12-07T09:54:21.703Z,9.39
2023-12-07T09:57:10.556Z,9.39
2023-12-07T09:59:57.041Z,9.40
2023-12-07T10:02:46.570Z,9.38
2023-12-07T10:05:32.642Z,9.39
2023-12-07T10:08:27.038Z,9.33
2023-12-07T10:11:14.325Z,9.36
2023-12-07T10:14:00.584Z,9.32
2023-12-07T10:16:59.366Z,9.27
2023-12-07T10:19:45.778Z,9.31
2023-12-07T10:22:32.676Z,9.26
2023-12-07T10:25:22.582Z,9.21
2023-12-07T10:28:09.819Z,9.23
2023-12-07T10:30:56.210Z,9.23
2023-12-07T10:33:44.088Z,9.23
2023-12-07T10:36:30.331Z,9.22
2023-12-07T10:39:21.682Z,9.21
2023-12-07T10:42:15.199Z,9.22
2023-12-07T10:45:06.134Z,9.18
2023-12-07T10:47:53.202Z,9.23
2023-12-07T10:50:45.311Z,9.23
2023-12-07T10:53:41.669Z,9.11
2023-12-07T10:56:41.992Z,9.17
2023-12-07T10:59:32.834Z,9.23
2023-12-07T11:02:22.810Z,9.22
2023-12-07T11:05:10.901Z,9.17
2023-12-07T11:08:22.796Z,9.17
2023-12-07T11:11:16.746Z,9.20
2023-12-07T11:14:06.238Z,9.21
2023-12-07T11:16:54.324Z,9.20
2023-12-07T11:19:44.655Z,9.21
2023-12-07T11:22:32.665Z,9.20
2023-12-07T11:25:18.528Z,9.19
2023-12-07T11:28:08.847Z,9.20
2023-12-07T11:30:54.729Z,9.22
2023-12-07T11:33:42.786Z,9.23
2023-12-07T11:36:29.463Z,9.24
2023-12-07T11:39:21.047Z,9.25
2023-12-07T11:42:23.787Z,9.19
2023-12-07T11:45:10.527Z,9.22
2023-12-07T11:48:16.063Z,9.14
2023-12-07T11:51:08.937Z,9.17
2023-12-07T11:53:56.032Z,9.15
2023-12-07T11:56:42.846Z,9.17
2023-12-07T11:59:33.844Z,9.16
2023-12-07T12:02:20.711Z,9.16
2023-12-07T12:05:06.914Z,9.12
2023-12-07T12:07:53.157Z,9.12
2023-12-07T12:10:41.154Z,9.13
2023-12-07T12:13:31.368Z,9.10
2023-12-07T12:16:17.372Z,9.11
2023-12-07T12:19:03.359Z,9.08
2023-12-07T12:21:49.521Z,9.06
2023-12-07T12:24:39.011Z,9.09
2023-12-07T12:27:25.209Z,9.10
2023-12-07T12:30:12.203Z,9.08
2023-12-07T12:32:58.833Z,9.07
2023-12-07T12:35:45.681Z,9.06
2023-12-07T12:38:38.672Z,9.04
2023-12-07T12:41:32.020Z,9.04
2023-12-07T12:44:24.824Z,9.04
2023-12-07T12:47:17.728Z,9.06
2023-12-07T12:50:07.075Z,9.06
2023-12-07T12:52:53.448Z,9.07
2023-12-07T12:55:40.943Z,9.11
2023-12-07T12:58:27.126Z,9.12
2023-12-07T13:01:13.477Z,9.09
2023-12-07T13:03:59.856Z,9.12
2023-12-07T13:06:46.140Z,9.11
2023-12-07T13:09:32.303Z,9.12
2023-12-07T13:12:18.356Z,9.12
2023-12-07T13:15:06.742Z,9.09
2023-12-07T13:17:52.684Z,9.11
2023-12-07T13:20:49.235Z,9.12
2023-12-07T13:23:39.926Z,9.12
2023-12-07T13:26:26.843Z,9.11
2023-12-07T13:29:18.309Z,9.11
2023-12-07T13:32:13.167Z,9.10
2023-12-07T13:34:59.996Z,9.07
2023-12-07T13:37:46.243Z,9.10
2023-12-07T13:40:33.186Z,9.10
2023-12-07T13:43:27.041Z,8.97
2023-12-07T13:46:14.322Z,9.13
2023-12-07T13:49:00.627Z,9.16
2023-12-07T13:51:47.706Z,9.19
2023-12-07T13:54:46.517Z,9.20
2023-12-07T13:57:39.293Z,9.20
2023-12-07T14:00:25.077Z,9.22
2023-12-07T14:03:11.208Z,9.29
2023-12-07T14:05:57.117Z,9.30
2023-12-07T14:08:43.462Z,9.32
2023-12-07T14:11:29.825Z,9.26
2023-12-07T14:14:16.126Z,9.32
2023-12-07T14:17:10.764Z,9.30
2023-12-07T14:20:10.283Z,9.30
2023-12-07T14:23:06.469Z,9.28
2023-12-07T14:25:52.961Z,9.24
2023-12-07T14:28:39.339Z,9.25
2023-12-07T14:31:25.624Z,9.21
2023-12-07T14:34:14.773Z,9.21
2023-12-07T14:37:07.485Z,9.20
2023-12-07T14:39:53.924Z,9.21
2023-12-07T14:42:40.427Z,9.23
2023-12-07T14:45:26.210Z,9.23
2023-12-07T14:48:13.325Z,9.24
2023-12-07T14:50:59.873Z,9.22
2023-12-07T14:53:46.260Z,9.24
2023-12-07T14:56:34.752Z,9.25
2023-12-07T14:59:25.999Z,9.24
2023-12-07T15:02:12.567Z,9.26
2023-12-07T15:04:59.331Z,9.22
2023-12-07T15:07:45.345Z,9.24
2023-12-07T15:10:33.163Z,9.21
2023-12-07T15:13:19.096Z,9.23
2023-12-07T15:16:06.539Z,9.21
2023-12-07T15:18:53.157Z,9.21
2023-12-07T15:21:39.412Z,9.16
2023-12-07T15:24:34.307Z,9.17
2023-12-07T15:27:26.080Z,9.13
2023-12-07T15:30:12.469Z,9.13
2023-12-07T15:32:58.522Z,9.10
2023-12-07T15:35:44.632Z,9.11
2023-12-07T15:38:31.301Z,9.10
2023-12-07T15:41:17.303Z,9.10
2023-12-07T15:44:02.991Z,9.09
2023-12-07T15:46:49.489Z,9.06
2023-12-07T15:49:35.665Z,9.05
2023-12-07T15:52:22.397Z,9.03
2023-12-07T15:55:08.812Z,9.04
2023-12-07T15:57:55.720Z,9.03
2023-12-07T16:00:42.249Z,8.99
2023-12-07T16:03:30.084Z,8.97
2023-12-07T16:06:16.441Z,8.98
2023-12-07T16:09:02.490Z,8.96
2023-12-07T16:11:48.694Z,8.93
2023-12-07T16:14:34.673Z,8.86
2023-12-07T16:17:21.312Z,8.88
2023-12-07T16:20:11.626Z,8.87
2023-12-07T16:22:57.949Z,8.85
2023-12-07T16:25:44.256Z,8.84
2023-12-07T16:28:30.481Z,8.83
2023-12-07T16:31:16.719Z,8.80
2023-12-07T16:34:05.104Z,8.73
2023-12-07T16:36:51.638Z,8.73
2023-12-07T16:39:43.149Z,8.73
2023-12-07T16:42:29.450Z,8.72
2023-12-07T16:45:16.636Z,8.74
2023-12-07T16:48:02.568Z,8.72
2023-12-07T16:50:49.897Z,8.73
2023-12-07T16:53:35.857Z,8.75
2023-12-07T16:56:21.988Z,8.76
2023-12-07T16:59:08.766Z,8.76
2023-12-07T17:01:54.949Z,8.75
2023-12-07T17:04:41.398Z,8.79
2023-12-07T17:07:27.595Z,8.74
2023-12-07T17:10:13.865Z,8.74
2023-12-07T17:13:02.104Z,8.72
2023-12-07T17:15:47.855Z,8.72
2023-12-07T17:18:33.884Z,8.71
2023-12-07T17:21:19.997Z,8.66
2023-12-07T17:24:07.585Z,8.63
2023-12-07T17:26:54.789Z,8.61
2023-12-07T17:29:41.159Z,8.59
2023-12-07T17:32:27.939Z,8.57
2023-12-07T17:35:14.165Z,8.56
2023-12-07T17:38:00.458Z,8.53
2023-12-07T17:40:46.250Z,8.53
2023-12-07T17:43:33.678Z,8.52
2023-12-07T17:46:19.692Z,8.51
2023-12-07T17:49:05.900Z,8.47
2023-12-07T17:51:53.061Z,8.50
2023-12-07T17:54:39.264Z,8.50
2023-12-07T17:57:27.662Z,8.52
2023-12-07T18:00:14.026Z,8.49
2023-12-07T18:03:00.002Z,8.52
2023-12-07T18:05:46.070Z,8.54
2023-12-07T18:08:32.210Z,8.55
2023-12-07T18:11:22.582Z,8.52
2023-12-07T18:14:08.789Z,8.53
2023-12-07T18:16:54.721Z,8.54
2023-12-07T18:19:40.781Z,8.54
2023-12-07T18:22:27.833Z,8.53
2023-12-07T18:25:14.144Z,8.53
2023-12-07T18:28:00.430Z,8.47
2023-12-07T18:30:46.452Z,8.51
2023-12-07T18:33:32.864Z,8.44
2023-12-07T18:36:20.390Z,8.54
2023-12-07T18:39:07.616Z,8.55
2023-12-07T18:41:54.839Z,8.52
2023-12-07T18:44:44.918Z,8.52
2023-12-07T18:47:32.454Z,8.57
2023-12-07T18:50:19.948Z,8.56
2023-12-07T18:53:05.950Z,8.53
2023-12-07T18:55:52.050Z,8.53
2023-12-07T18:58:38.197Z,8.57
2023-12-07T19:01:34.197Z,8.57
2023-12-07T19:04:20.436Z,8.59
2023-12-07T19:07:06.451Z,8.60
2023-12-07T19:09:52.345Z,8.61
2023-12-07T19:12:43.068Z,8.61
2023-12-07T19:15:29.782Z,8.62
2023-12-07T19:18:16.467Z,8.66
2023-12-07T19:21:02.736Z,8.67
2023-12-07T19:23:50.180Z,8.69
2023-12-07T19:26:36.357Z,8.72
2023-12-07T19:29:22.595Z,8.66
2023-12-07T19:32:09.451Z,8.73
2023-12-07T19:34:56.408Z,8.76
2023-12-07T19:37:42.409Z,8.77
2023-12-07T19:40:28.651Z,8.79
2023-12-07T19:43:15.037Z,8.80
2023-12-07T19:46:01.299Z,8.78
2023-12-07T19:48:47.538Z,8.80
2023-12-07T19:51:33.788Z,8.79
2023-12-07T19:54:25.080Z,8.79
2023-12-07T19:57:11.653Z,8.86
2023-12-07T19:59:58.889Z,8.85
2023-12-07T20:02:44.916Z,8.88
2023-12-07T20:05:30.954Z,8.89
2023-12-07T20:08:17.185Z,8.88
2023-12-07T20:11:03.380Z,8.90
2023-12-07T20:13:51.425Z,8.89
2023-12-07T20:16:37.537Z,8.91
2023-12-07T20:19:24.709Z,8.89
2023-12-07T20:22:12.564Z,8.87
2023-12-07T20:24:58.883Z,8.89
2023-12-07T20:27:46.419Z,8.93
2023-12-07T20:30:32.584Z,8.93
2023-12-07T20:33:18.918Z,8.92
2023-12-07T20:36:06.496Z,8.94
2023-12-07T20:38:52.436Z,8.97
2023-12-07T20:41:38.600Z,8.99
2023-12-07T20:44:24.701Z,9.02
2023-12-07T20:47:10.837Z,9.02
2023-12-07T20:49:57.300Z,9.02
2023-12-07T20:52:43.437Z,9.03
2023-12-07T20:55:29.701Z,9.04
2023-12-07T20:58:15.930Z,9.04
2023-12-07T21:01:02.730Z,9.07
2023-12-07T21:03:50.274Z,9.07
2023-12-07T21:06:37.014Z,9.06
2023-12-07T21:09:22.925Z,9.04
2023-12-07T21:12:08.985Z,9.02
2023-12-07T21:14:55.732Z,9.05
2023-12-07T21:17:42.110Z,9.04
2023-12-07T21:20:28.131Z,9.04
2023-12-07T21:23:16.583Z,9.03
2023-12-07T21:26:03.851Z,9.03
2023-12-07T21:28:50.004Z,8.98
2023-12-07T21:31:36.375Z,8.98
2023-12-07T21:34:22.797Z,9.02
2023-12-07T21:37:09.036Z,9.02
2023-12-07T21:39:55.771Z,9.01
2023-12-07T21:42:41.597Z,9.03
2023-12-07T21:45:35.472Z,9.01
2023-12-07T21:49:00.934Z,8.96
2023-12-07T21:51:46.942Z,9.02
2023-12-07T21:54:34.100Z,9.01
2023-12-07T21:57:21.539Z,9.00
2023-12-07T22:00:14.370Z,8.97
2023-12-07T22:03:01.014Z,8.99
2023-12-07T22:05:50.069Z,8.98
2023-12-07T22:08:36.425Z,8.98
2023-12-07T22:11:22.759Z,8.99
2023-12-07T22:14:08.969Z,8.99
2023-12-07T22:16:55.987Z,8.98
2023-12-07T22:19:42.049Z,8.98
2023-12-07T22:22:28.419Z,8.97
2023-12-07T22:25:16.051Z,8.98
2023-12-07T22:28:06.175Z,8.97
2023-12-07T22:30:52.017Z,8.98
2023-12-07T22:33:38.298Z,8.97
2023-12-07T22:36:25.651Z,8.95
2023-12-07T22:39:11.835Z,8.96
2023-12-07T22:41:58.059Z,8.93
2023-12-07T22:44:46.103Z,8.93
2023-12-07T22:47:32.444Z,8.95
2023-12-07T22:50:18.931Z,8.91
2023-12-07T22:53:04.802Z,8.95
2023-12-07T22:55:50.892Z,8.95
2023-12-07T22:58:38.264Z,8.96
2023-12-07T23:01:24.420Z,8.97
2023-12-07T23:04:13.332Z,8.96
2023-12-07T23:06:59.425Z,8.96
2023-12-07T23:09:48.995Z,8.96
2023-12-07T23:12:35.322Z,8.97
2023-12-07T23:15:21.351Z,8.98
2023-12-07T23:18:07.572Z,8.97
2023-12-07T23:20:53.834Z,8.97
2023-12-07T23:23:39.978Z,8.96
2023-12-07T23:26:25.738Z,8.95
2023-12-07T23:29:13.530Z,8.93
2023-12-07T23:31:59.342Z,8.92
2023-12-07T23:34:45.963Z,8.94
2023-12-07T23:37:31.774Z,8.92
2023-12-07T23:40:17.889Z,8.94
2023-12-07T23:43:04.422Z,8.94
2023-12-07T23:45:54.015Z,8.93
2023-12-07T23:48:40.159Z,8.93
2023-12-07T23:51:26.191Z,8.97
2023-12-07T23:54:13.163Z,8.96
2023-12-07T23:56:59.300Z,8.96
2023-12-07T23:59:45.449Z,8.96
